Time;durP1;ratioP1;P1;durP2;ratioP2;P2;SDS_P1;SDS_P2;PMS_P1;PMS_P2;Temp;Humidity;BMP_temperature;BMP_pressure;BME280_temperature;BME280_humidity;BME280_pressure;Samples;Min_cycle;Max_cycle;Signal;HPM_P1;HPM_P2
2022/07/08 00:01:02;;;;;;;24.00;17.07;;;;;;;36.28;46.39;101317.25;6249790;22;20400;-73
2022/07/08 00:03:29;;;;;;;43.20;18.73;;;;;;;36.29;46.71;101314.25;6249967;22;20377;-73
2022/07/08 00:05:55;;;;;;;42.40;20.83;;;;;;;36.39;46.33;101309.81;6277814;22;20498;-73
2022/07/08 00:08:21;;;;;;;37.47;20.10;;;;;;;36.52;45.75;101311.88;6277334;22;20350;-73
2022/07/08 00:10:47;;;;;;;37.17;18.57;;;;;;;36.37;46.18;101301.22;6277289;22;20404;-73
2022/07/08 00:13:14;;;;;;;31.50;18.30;;;;;;;36.32;46.15;101291.25;6249877;22;20381;-73
2022/07/08 00:15:40;;;;;;;31.70;19.33;;;;;;;36.37;46.48;101285.81;6277378;22;20346;-73
2022/07/08 00:18:06;;;;;;;35.33;14.73;;;;;;;36.41;46.17;101283.38;6249790;22;20373;-73
2022/07/08 00:20:32;;;;;;;33.07;16.97;;;;;;;36.38;46.19;101284.72;6276995;22;20468;-73
2022/07/08 00:22:58;;;;;;;31.37;16.43;;;;;;;36.46;46.63;101286.00;6249735;22;20853;-73
2022/07/08 00:25:24;;;;;;;34.17;19.43;;;;;;;36.45;46.15;101287.91;6249641;22;20417;-73
2022/07/08 00:27:51;;;;;;;39.77;15.97;;;;;;;36.18;47.06;101293.00;6249474;22;20934;-73
2022/07/08 00:30:17;;;;;;;36.83;17.40;;;;;;;36.27;46.63;101275.88;6249725;22;20385;-73
2022/07/08 00:32:43;;;;;;;38.43;19.10;;;;;;;36.33;46.54;101276.66;6249357;22;20378;-73
2022/07/08 00:35:09;;;;;;;31.07;17.80;;;;;;;36.24;47.13;101295.38;6249482;22;20378;-74
2022/07/08 00:37:35;;;;;;;31.73;17.47;;;;;;;36.08;47.45;101293.09;6249567;22;20724;-75
2022/07/08 00:40:03;;;;;;;37.53;20.63;;;;;;;36.25;46.83;101288.06;6249128;22;20388;-74
2022/07/08 00:42:29;;;;;;;49.30;21.23;;;;;;;36.17;47.04;101275.19;6277251;22;20357;-75
2022/07/08 00:44:55;;;;;;;33.43;20.17;;;;;;;36.23;46.98;101282.97;6249406;22;20914;-74
2022/07/08 00:47:22;;;;;;;47.10;19.90;;;;;;;36.24;47.02;101270.25;6249471;22;20373;-74
2022/07/08 00:49:50;;;;;;;27.80;17.07;;;;;;;36.25;46.72;101285.38;6244267;22;20442;-73
2022/07/08 00:52:17;;;;;;;30.53;17.23;;;;;;;36.11;46.95;101282.53;6246386;22;20351;-73
2022/07/08 00:54:44;;;;;;;26.30;16.93;;;;;;;36.18;46.87;101274.09;6246513;22;20391;-73
2022/07/08 00:57:10;;;;;;;29.20;15.90;;;;;;;36.08;47.17;101269.59;6246294;22;20346;-73
2022/07/08 00:59:37;;;;;;;32.67;20.27;;;;;;;36.12;47.09;101262.53;6244403;23;20378;-73
2022/07/08 01:02:03;;;;;;;41.97;19.53;;;;;;;36.19;47.23;101262.19;6244929;23;20347;-73
2022/07/08 01:04:31;;;;;;;32.73;19.23;;;;;;;36.29;46.42;101254.00;6244109;23;20378;-72
2022/07/08 01:06:57;;;;;;;35.37;20.23;;;;;;;36.28;46.41;101255.13;6219221;23;20383;-73
2022/07/08 01:09:25;;;;;;;28.70;17.23;;;;;;;36.18;47.10;101239.78;6218851;23;20389;-74
2022/07/08 01:11:51;;;;;;;30.23;17.90;;;;;;;36.17;46.68;101246.28;6245306;23;20347;-75
2022/07/08 01:14:18;;;;;;;37.60;19.20;;;;;;;36.25;46.78;101244.84;6246209;22;20358;-75
2022/07/08 01:16:44;;;;;;;41.70;21.63;;;;;;;36.30;46.05;101247.50;6244221;23;20379;-75
2022/07/08 01:19:10;;;;;;;33.63;16.80;;;;;;;36.26;46.63;101252.66;6246011;22;20394;-75
2022/07/08 01:21:37;;;;;;;36.80;18.90;;;;;;;36.39;46.57;101259.31;6244018;23;20458;-73
2022/07/08 01:24:03;;;;;;;41.90;19.10;;;;;;;36.35;46.33;101258.28;6244150;23;20389;-73
2022/07/08 01:26:29;;;;;;;26.33;17.17;;;;;;;36.35;46.32;101250.16;6245851;23;20426;-73
2022/07/08 01:28:56;;;;;;;38.37;19.63;;;;;;;36.33;46.28;101246.94;6243881;23;20401;-72
2022/07/08 01:31:22;;;;;;;43.43;18.27;;;;;;;36.26;46.46;101243.75;6243995;23;20386;-73
2022/07/08 01:33:48;;;;;;;35.63;16.97;;;;;;;36.40;46.29;101238.50;6243916;23;20433;-73
2022/07/08 01:36:14;;;;;;;31.57;18.17;;;;;;;36.30;46.59;101237.50;6246008;22;20428;-73
2022/07/08 01:38:40;;;;;;;29.30;16.53;;;;;;;36.28;46.48;101233.50;6245864;22;20710;-74
2022/07/08 01:41:06;;;;;;;32.63;18.50;;;;;;;36.27;46.59;101234.56;6245830;22;20764;-75
2022/07/08 01:43:32;;;;;;;28.47;16.27;;;;;;;36.17;47.01;101232.00;6243569;23;20739;-73
2022/07/08 01:45:59;;;;;;;35.97;20.73;;;;;;;36.24;46.77;101233.25;6245607;23;20906;-73
2022/07/08 01:48:25;;;;;;;48.50;19.53;;;;;;;36.01;47.10;101229.41;6243912;22;20394;-73
2022/07/08 01:50:51;;;;;;;30.50;17.60;;;;;;;36.10;46.85;101226.91;6218407;23;20442;-75
2022/07/08 01:53:17;;;;;;;37.03;20.23;;;;;;;36.00;47.74;101227.81;6243809;23;20402;-74
2022/07/08 01:55:44;;;;;;;35.17;17.33;;;;;;;35.95;47.65;101225.16;6243888;23;20464;-73
2022/07/08 01:58:10;;;;;;;38.50;18.97;;;;;;;36.05;47.24;101218.84;6243663;23;20398;-73
2022/07/08 02:00:37;;;;;;;36.80;19.10;;;;;;;36.06;47.55;101215.88;6243834;23;20402;-73
2022/07/08 02:03:03;;;;;;;34.00;17.33;;;;;;;36.15;46.97;101212.53;6218574;23;20379;-75
2022/07/08 02:05:32;;;;;;;45.37;19.63;;;;;;;36.30;47.16;101215.09;6245371;23;20510;-74
2022/07/08 02:07:58;;;;;;;45.43;22.17;;;;;;;36.16;46.83;101216.88;6244119;23;20382;-75
2022/07/08 02:10:25;;;;;;;39.50;17.50;;;;;;;36.31;46.80;101225.63;6243680;23;20453;-75
2022/07/08 02:12:51;;;;;;;36.03;19.40;;;;;;;36.13;47.28;101236.34;6245616;22;20778;-73
2022/07/08 02:15:17;;;;;;;35.70;17.20;;;;;;;35.73;48.49;101231.00;6245640;23;20422;-72
2022/07/08 02:17:44;;;;;;;43.80;20.60;;;;;;;35.98;48.18;101238.09;6243588;23;20382;-73
2022/07/08 02:20:13;;;;;;;35.70;18.67;;;;;;;35.95;47.80;101243.25;6243481;23;20389;-73
2022/07/08 02:22:40;;;;;;;26.13;18.07;;;;;;;35.77;47.91;101233.91;6245591;22;20351;-74
2022/07/08 02:25:07;;;;;;;27.73;16.63;;;;;;;35.89;47.31;101236.25;6243468;23;20429;-73
2022/07/08 02:27:34;;;;;;;29.90;17.27;;;;;;;35.58;48.01;101231.09;6243678;23;20370;-73
2022/07/08 02:30:00;;;;;;;36.03;18.30;;;;;;;35.82;48.20;101241.97;6243397;23;20432;-75
2022/07/08 02:32:26;;;;;;;51.67;19.27;;;;;;;35.72;47.85;101248.25;6243568;23;20410;-74
2022/07/08 02:34:52;;;;;;;28.73;16.57;;;;;;;35.84;47.76;101252.47;6243571;23;20367;-73
2022/07/08 02:37:19;;;;;;;36.67;23.03;;;;;;;35.77;47.71;101263.59;6243637;23;20370;-73
2022/07/08 02:39:45;;;;;;;31.07;16.70;;;;;;;35.88;47.62;101251.63;6243623;23;20370;-73
2022/07/08 02:42:11;;;;;;;24.37;16.33;;;;;;;35.79;47.51;101242.56;6243520;23;20370;-73
2022/07/08 02:44:37;;;;;;;44.13;20.80;;;;;;;35.94;47.59;101245.13;6243451;23;20378;-73
2022/07/08 02:47:05;;;;;;;31.93;15.90;;;;;;;36.03;47.65;101242.63;6243474;23;20417;-73
2022/07/08 02:49:31;;;;;;;31.83;17.27;;;;;;;36.06;47.13;101234.78;6243335;22;20781;-73
2022/07/08 02:51:58;;;;;;;39.33;19.03;;;;;;;36.15;46.88;101245.75;6245563;22;20359;-73
2022/07/08 02:54:24;;;;;;;35.93;18.27;;;;;;;36.01;47.33;101232.13;6243784;23;20835;-73
2022/07/08 02:56:50;;;;;;;35.17;19.17;;;;;;;35.99;47.30;101228.09;6245624;23;20881;-75
2022/07/08 02:59:16;;;;;;;35.00;17.37;;;;;;;35.93;47.37;101234.63;6245369;23;20389;-74
2022/07/08 03:01:42;;;;;;;30.97;19.70;;;;;;;36.12;46.68;101232.03;6245447;23;20450;-75
2022/07/08 03:04:08;;;;;;;36.57;17.00;;;;;;;36.17;46.90;101232.78;6245432;23;20457;-73
2022/07/08 03:06:34;;;;;;;36.10;19.43;;;;;;;36.27;46.72;101229.16;6245266;23;20487;-73
2022/07/08 03:09:01;;;;;;;36.77;17.20;;;;;;;36.22;46.66;101227.34;6245516;23;20413;-74
2022/07/08 03:11:27;;;;;;;25.33;16.17;;;;;;;36.33;46.70;101236.13;6245272;23;20416;-74
2022/07/08 03:13:53;;;;;;;30.90;17.97;;;;;;;36.37;46.61;101217.47;6245377;23;20931;-75
2022/07/08 03:16:19;;;;;;;42.67;18.93;;;;;;;36.38;46.64;101219.06;6245429;23;20401;-73
2022/07/08 03:18:46;;;;;;;38.00;18.40;;;;;;;36.29;46.96;101213.50;6245288;23;20385;-73
2022/07/08 03:21:12;;;;;;;41.20;17.67;;;;;;;36.38;46.68;101216.38;6245232;23;20383;-74
2022/07/08 03:23:38;;;;;;;37.70;19.37;;;;;;;36.35;46.59;101215.06;6245151;23;20374;-74
2022/07/08 03:26:04;;;;;;;31.27;17.53;;;;;;;36.30;46.98;101231.31;6245241;23;20421;-75
2022/07/08 03:28:30;;;;;;;46.03;17.67;;;;;;;36.27;46.75;101221.06;6245195;23;20416;-74
2022/07/08 03:30:57;;;;;;;35.67;18.83;;;;;;;36.25;46.66;101234.06;6245223;23;20858;-75
2022/07/08 03:33:23;;;;;;;31.60;17.13;;;;;;;36.19;46.80;101240.59;6245105;23;20751;-74
2022/07/08 03:35:49;;;;;;;33.40;16.43;;;;;;;36.23;46.60;101249.75;6245074;23;20697;-74
2022/07/08 03:38:16;;;;;;;35.77;18.83;;;;;;;36.26;46.37;101255.38;6245181;23;20379;-73
2022/07/08 03:43:27;;;;;;;33.47;17.17;;;;;;;36.18;46.35;101252.50;6246821;23;20404;-75
2022/07/08 03:45:53;;;;;;;29.57;16.23;;;;;;;36.16;46.99;101260.09;6219862;23;20766;-75
2022/07/08 03:48:19;;;;;;;29.30;17.77;;;;;;;36.19;47.04;101260.31;6246854;22;20818;-74
2022/07/08 03:50:45;;;;;;;36.23;15.87;;;;;;;36.28;46.70;101258.63;6244771;23;20942;-74
2022/07/08 03:53:11;;;;;;;29.17;20.10;;;;;;;36.21;46.63;101265.41;6244895;23;20429;-74
2022/07/08 03:55:38;;;;;;;46.13;19.17;;;;;;;35.84;47.54;101257.88;6245054;23;20374;-75
2022/07/08 03:58:04;;;;;;;45.80;20.13;;;;;;;36.00;47.15;101257.50;6244897;23;20393;-75
2022/07/08 04:00:30;;;;;;;26.10;16.03;;;;;;;36.22;46.80;101251.66;6244985;23;20370;-75
2022/07/08 04:02:56;;;;;;;36.23;18.63;;;;;;;36.09;47.17;101256.88;6219915;23;20842;-73
2022/07/08 04:05:23;;;;;;;28.33;16.67;;;;;;;36.14;47.36;101251.44;6244649;23;20430;-75
2022/07/08 04:07:49;;;;;;;34.30;18.30;;;;;;;36.14;46.50;101254.16;6244530;23;20389;-75
2022/07/08 04:10:15;;;;;;;29.80;18.10;;;;;;;36.20;46.94;101253.00;6244797;23;20891;-74
2022/07/08 04:12:41;;;;;;;34.43;18.77;;;;;;;36.00;47.26;101252.09;6246520;22;20458;-73
2022/07/08 04:15:08;;;;;;;45.67;18.60;;;;;;;36.11;47.09;101249.31;6244784;23;20405;-73
2022/07/08 04:17:35;;;;;;;41.83;17.83;;;;;;;36.12;46.85;101259.84;6244731;23;20382;-73
2022/07/08 04:20:01;;;;;;;58.50;19.63;;;;;;;36.03;46.64;101254.25;6244561;23;20367;-75
2022/07/08 04:22:27;;;;;;;33.27;18.47;;;;;;;36.07;46.79;101254.47;6244718;23;20436;-74
2022/07/08 04:24:53;;;;;;;38.27;16.70;;;;;;;36.13;46.77;101255.25;6244432;23;20430;-73
2022/07/08 04:27:19;;;;;;;33.20;17.93;;;;;;;36.15;46.82;101269.25;6244711;23;20375;-73
2022/07/08 04:29:46;;;;;;;28.83;17.13;;;;;;;36.20;46.93;101261.91;6244530;23;20703;-73
2022/07/08 04:32:12;;;;;;;41.93;19.70;;;;;;;36.30;46.44;101274.53;6244517;23;20393;-72
2022/07/08 04:34:38;;;;;;;35.73;18.63;;;;;;;36.29;47.01;101272.91;6244666;23;20374;-75
2022/07/08 04:37:04;;;;;;;49.20;18.70;;;;;;;36.23;46.90;101280.25;6244472;23;20465;-74
2022/07/08 04:39:30;;;;;;;29.43;15.63;;;;;;;36.18;47.04;101276.81;6246723;22;20869;-74
2022/07/08 04:41:56;;;;;;;34.17;18.77;;;;;;;36.12;46.74;101278.75;6244426;23;20375;-74
2022/07/08 04:44:22;;;;;;;33.93;21.73;;;;;;;36.10;47.35;101289.03;6244429;23;20398;-74
2022/07/08 04:46:49;;;;;;;32.07;16.43;;;;;;;36.03;47.33;101294.75;6244538;23;20434;-75
2022/07/08 04:49:16;;;;;;;34.50;16.37;;;;;;;36.18;46.90;101295.72;6244226;22;20441;-74
2022/07/08 04:51:42;;;;;;;31.37;17.10;;;;;;;36.06;46.77;101299.56;6246571;22;20477;-75
2022/07/08 04:54:08;;;;;;;35.80;18.67;;;;;;;36.02;47.00;101300.41;6244402;23;20434;-75
2022/07/08 04:56:34;;;;;;;27.37;17.40;;;;;;;36.00;47.15;101298.00;6244399;23;20403;-75
2022/07/08 04:59:00;;;;;;;36.60;20.43;;;;;;;35.86;47.53;101302.41;6244366;23;20440;-75
2022/07/08 05:01:26;;;;;;;30.93;18.20;;;;;;;35.93;47.36;101297.53;6244397;23;20402;-75
2022/07/08 05:03:54;;;;;;;32.67;20.60;;;;;;;35.81;47.78;101310.53;6244326;23;20727;-75
2022/07/08 05:06:20;;;;;;;32.33;19.37;;;;;;;35.83;47.71;101319.16;6244248;23;20446;-75
2022/07/08 05:08:46;;;;;;;37.73;19.23;;;;;;;35.87;48.13;101320.22;6244329;23;20386;-75
2022/07/08 05:11:12;;;;;;;37.87;17.60;;;;;;;36.02;47.67;101314.72;6244295;23;20853;-72
2022/07/08 05:13:38;;;;;;;38.37;17.70;;;;;;;36.12;47.12;101326.56;6244015;23;20737;-73
2022/07/08 05:16:05;;;;;;;36.60;17.77;;;;;;;35.95;47.29;101333.13;6244207;23;20375;-73
2022/07/08 05:18:31;;;;;;;33.73;18.70;;;;;;;35.90;48.12;101332.34;6245771;22;20448;-74
2022/07/08 05:20:57;;;;;;;28.60;16.30;;;;;;;35.87;47.93;101327.50;6243949;23;20732;-74
2022/07/08 05:23:23;;;;;;;31.90;16.50;;;;;;;35.79;48.34;101340.53;6246224;22;20416;-75
2022/07/08 05:25:49;;;;;;;32.43;17.53;;;;;;;35.97;48.11;101333.69;6243954;23;20887;-73
2022/07/08 05:28:16;;;;;;;29.27;18.17;;;;;;;35.79;47.85;101329.72;6246027;22;20708;-73
2022/07/08 05:30:42;;;;;;;35.27;18.17;;;;;;;35.82;48.13;101341.03;6244078;23;20402;-73
2022/07/08 05:33:08;;;;;;;34.70;17.90;;;;;;;35.75;48.33;101336.75;6245459;22;20944;-74
2022/07/08 05:35:34;;;;;;;28.53;16.43;;;;;;;35.81;48.04;101334.84;6244006;23;20414;-73
2022/07/08 05:38:01;;;;;;;43.77;21.17;;;;;;;35.42;48.78;101346.41;6243912;23;20386;-73
2022/07/08 05:40:27;;;;;;;36.23;17.37;;;;;;;35.52;49.04;101350.91;6218796;23;20406;-73
2022/07/08 05:42:53;;;;;;;39.00;19.70;;;;;;;35.67;49.27;101348.16;6244025;23;20425;-73
2022/07/08 05:45:19;;;;;;;41.70;19.90;;;;;;;35.31;49.39;101354.78;6243567;23;20493;-73
2022/07/08 05:47:45;;;;;;;39.17;22.20;;;;;;;35.07;50.26;101359.97;6218469;23;20375;-73
2022/07/08 05:50:12;;;;;;;59.53;22.70;;;;;;;34.83;51.01;101359.75;6243173;22;20437;-73
2022/07/08 05:52:38;;;;;;;44.80;22.23;;;;;;;34.85;50.71;101373.75;6243821;23;20383;-73
2022/07/08 05:55:04;;;;;;;39.00;21.93;;;;;;;34.57;50.98;101369.75;6243900;23;20444;-73
2022/07/08 05:57:30;;;;;;;35.83;18.07;;;;;;;34.98;50.32;101351.63;6218276;23;20385;-75
2022/07/08 05:59:57;;;;;;;36.40;18.60;;;;;;;34.90;50.95;101361.06;6243919;23;20374;-73
2022/07/08 06:02:23;;;;;;;37.10;19.10;;;;;;;35.00;50.21;101365.66;6218538;23;20379;-73
2022/07/08 06:04:49;;;;;;;47.23;22.03;;;;;;;35.08;49.90;101362.41;6245729;23;20398;-73
2022/07/08 06:07:15;;;;;;;38.40;18.80;;;;;;;34.89;50.47;101359.47;6245235;22;20362;-73
2022/07/08 06:09:41;;;;;;;28.70;20.27;;;;;;;35.04;50.35;101361.31;6243296;23;20406;-74
2022/07/08 06:12:08;;;;;;;41.53;19.67;;;;;;;35.02;50.27;101365.38;6243164;23;20387;-73
2022/07/08 06:14:34;;;;;;;57.73;18.63;;;;;;;35.31;49.80;101363.69;6243123;23;20385;-74
2022/07/08 06:17:00;;;;;;;44.63;21.40;;;;;;;35.25;49.98;101378.25;6243525;23;20412;-74
2022/07/08 06:19:27;;;;;;;60.30;21.80;;;;;;;35.26;49.92;101369.88;6243595;23;20381;-74
2022/07/08 06:21:53;;;;;;;50.43;25.17;;;;;;;35.34;49.87;101375.78;6243335;23;20788;-73
2022/07/08 06:24:19;;;;;;;34.70;20.57;;;;;;;35.15;49.95;101380.97;6243802;23;20863;-74
2022/07/08 06:26:46;;;;;;;33.43;22.30;;;;;;;35.06;49.76;101385.34;6243344;23;20905;-73
2022/07/08 18:26:10;;;;;;;36.10;19.67;;;;;;;36.33;47.94;101204.50;6242631;22;20450;-73
2022/07/08 18:28:37;;;;;;;40.03;20.13;;;;;;;36.26;47.99;101205.94;6217821;23;20418;-72
2022/07/08 18:31:04;;;;;;;33.20;19.10;;;;;;;36.24;47.73;101202.75;6245277;23;20355;-73
2022/07/08 18:33:30;;;;;;;45.43;18.20;;;;;;;35.98;48.42;101204.88;6244871;23;20397;-72
2022/07/08 18:35:57;;;;;;;34.53;20.80;;;;;;;36.00;48.42;101192.72;6217932;23;20948;-71
2022/07/08 18:38:23;;;;;;;46.37;21.17;;;;;;;35.98;48.47;101191.41;6218274;23;20414;-70
2022/07/08 18:40:49;;;;;;;35.57;17.43;;;;;;;35.73;49.34;101201.31;6217144;23;20393;-70
2022/07/08 18:43:15;;;;;;;27.27;19.20;;;;;;;35.98;48.55;101200.28;6191608;23;20444;-71
2022/07/08 18:45:41;;;;;;;44.93;21.03;;;;;;;36.00;48.29;101214.31;6217372;23;20481;-71
2022/07/08 18:48:08;;;;;;;36.87;19.33;;;;;;;35.90;48.64;101211.66;6217526;23;20478;-70
2022/07/08 18:50:34;;;;;;;37.73;18.20;;;;;;;35.96;48.70;101221.34;6244827;23;20354;-71
2022/07/08 18:53:00;;;;;;;39.20;22.40;;;;;;;35.87;48.86;101217.63;6217924;23;20382;-71
2022/07/08 18:55:26;;;;;;;41.83;20.87;;;;;;;35.97;48.85;101227.56;6244746;23;20381;-71
2022/07/08 18:57:53;;;;;;;48.67;20.60;;;;;;;35.98;49.07;101223.78;6217798;23;20406;-71
2022/07/08 19:00:19;;;;;;;42.60;20.07;;;;;;;35.92;48.77;101231.13;6217368;23;20441;-72
2022/07/08 19:02:45;;;;;;;32.33;18.40;;;;;;;35.92;48.70;101235.72;6217970;23;20382;-70
2022/07/08 19:05:13;;;;;;;25.73;17.43;;;;;;;36.00;48.64;101243.19;6245557;23;20374;-71
2022/07/08 19:07:39;;;;;;;57.90;21.30;;;;;;;36.05;48.45;101235.88;6217845;23;20410;-71
2022/07/08 19:10:06;;;;;;;45.20;22.17;;;;;;;36.11;48.71;101235.81;6217830;23;20791;-71
2022/07/08 19:12:32;;;;;;;34.63;18.07;;;;;;;36.18;48.32;101231.69;6217913;23;20371;-71
2022/07/08 19:14:58;;;;;;;42.47;19.63;;;;;;;36.19;48.08;101236.00;6217872;23;20402;-71
2022/07/08 19:17:24;;;;;;;39.73;21.80;;;;;;;36.15;48.26;101242.25;6217729;23;20378;-71
2022/07/08 19:19:51;;;;;;;30.93;18.30;;;;;;;36.21;47.88;101251.91;6217096;23;20817;-71
2022/07/08 19:22:17;;;;;;;32.83;18.40;;;;;;;36.04;48.22;101250.47;6216043;23;20444;-71
2022/07/08 19:24:44;;;;;;;31.00;18.23;;;;;;;36.16;47.89;101262.78;6231211;23;20438;-71
2022/07/08 19:27:12;;;;;;;32.90;21.17;;;;;;;36.24;48.25;101268.38;6187783;23;20435;-70
2022/07/08 19:29:39;;;;;;;37.83;19.57;;;;;;;36.18;47.37;101266.81;6214895;23;20453;-71
2022/07/08 19:32:05;;;;;;;37.13;18.83;;;;;;;36.19;47.70;101264.91;6187689;23;20390;-71
2022/07/08 19:34:34;;;;;;;29.83;18.53;;;;;;;36.22;47.70;101267.84;6186912;23;20714;-71
2022/07/08 19:37:03;;;;;;;26.60;18.60;;;;;;;36.30;47.34;101271.81;6164111;23;20486;-70
2022/07/08 19:39:30;;;;;;;41.50;22.83;;;;;;;36.21;47.62;101273.53;6189454;23;20819;-71
2022/07/08 19:41:59;;;;;;;35.63;21.30;;;;;;;36.28;47.95;101274.81;6140711;23;20387;-71
2022/07/08 19:44:25;;;;;;;34.60;21.13;;;;;;;36.32;47.30;101285.84;6189629;23;20391;-71
2022/07/08 19:46:52;;;;;;;33.67;20.17;;;;;;;36.37;47.72;101285.81;6188272;23;20953;-72
2022/07/08 19:49:18;;;;;;;43.50;23.20;;;;;;;36.40;47.36;101290.69;6215059;23;20705;-69
2022/07/08 19:51:44;;;;;;;37.20;20.90;;;;;;;36.29;47.65;101303.44;6189161;23;20895;-69
2022/07/08 19:54:10;;;;;;;51.23;24.67;;;;;;;36.29;48.07;101305.34;6216637;23;20363;-70
2022/07/08 19:56:36;;;;;;;42.77;23.23;;;;;;;36.37;47.86;101318.22;6189088;23;20383;-70
2022/07/08 19:59:03;;;;;;;49.83;23.13;;;;;;;36.32;47.58;101323.66;6214754;23;20391;-71
2022/07/08 20:01:29;;;;;;;38.20;22.57;;;;;;;36.37;47.88;101334.44;6189028;23;20394;-71
2022/07/08 20:03:56;;;;;;;40.73;22.00;;;;;;;36.43;47.72;101340.63;6189008;23;20403;-71
2022/07/08 20:06:22;;;;;;;55.03;22.67;;;;;;;36.44;47.90;101339.53;6188711;23;20454;-71
2022/07/08 20:08:49;;;;;;;37.70;26.87;;;;;;;36.38;47.42;101337.94;6189065;23;20419;-69
2022/07/08 20:11:15;;;;;;;31.37;21.77;;;;;;;36.40;47.80;101342.00;6164171;23;20848;-69
2022/07/08 20:13:41;;;;;;;45.00;22.83;;;;;;;36.44;47.96;101348.44;6188935;23;20445;-70
2022/07/08 20:16:07;;;;;;;49.20;22.87;;;;;;;36.45;47.62;101355.44;6189198;23;20417;-69
2022/07/08 20:18:33;;;;;;;53.63;24.37;;;;;;;36.35;47.35;101358.22;6189097;23;20386;-70
2022/07/08 20:20:59;;;;;;;33.80;19.00;;;;;;;36.27;47.98;101356.94;6188950;23;20448;-69
2022/07/08 20:23:26;;;;;;;48.37;23.07;;;;;;;36.27;48.27;101367.72;6189007;23;20393;-70
2022/07/08 20:25:52;;;;;;;41.20;19.90;;;;;;;36.25;47.79;101363.72;6188719;23;20454;-70
2022/07/08 20:28:19;;;;;;;38.07;18.30;;;;;;;36.36;47.92;101367.16;6188780;23;20383;-70
2022/07/08 20:30:45;;;;;;;43.33;20.30;;;;;;;36.25;48.34;101372.63;6189165;23;20445;-70
2022/07/08 20:33:12;;;;;;;54.10;20.43;;;;;;;36.24;48.31;101372.91;6188705;23;20380;-70
2022/07/08 20:35:38;;;;;;;45.80;23.47;;;;;;;36.13;48.20;101380.28;6216260;23;20804;-70
2022/07/08 20:38:04;;;;;;;41.30;19.83;;;;;;;36.20;47.93;101382.66;6188748;23;20454;-70
2022/07/08 20:40:31;;;;;;;26.77;18.10;;;;;;;36.16;48.23;101379.72;6188925;23;20372;-70
2022/07/08 20:42:57;;;;;;;37.57;20.87;;;;;;;36.24;47.79;101383.72;6189035;23;20823;-70
2022/07/08 20:45:24;;;;;;;37.73;20.70;;;;;;;36.28;47.90;101390.97;6188602;23;20423;-70
2022/07/08 20:47:50;;;;;;;43.57;23.53;;;;;;;36.32;48.06;101391.19;6188694;23;20844;-70
2022/07/08 20:50:17;;;;;;;41.07;21.90;;;;;;;36.38;48.02;101400.88;6215846;23;20359;-70
2022/07/08 20:52:44;;;;;;;47.43;20.63;;;;;;;36.27;48.07;101407.44;6188792;23;20371;-71
2022/07/08 20:55:12;;;;;;;42.63;24.63;;;;;;;36.02;48.26;101403.84;6187356;23;20852;-71
2022/07/08 20:57:42;;;;;;;54.10;22.17;;;;;;;36.05;48.63;101406.00;6213808;23;20357;-72
2022/07/08 21:00:11;;;;;;;46.50;22.47;;;;;;;36.16;48.93;101411.34;6216089;23;20410;-71
2022/07/08 21:02:37;;;;;;;50.33;24.87;;;;;;;36.24;48.12;101410.72;6164047;23;20859;-70
2022/07/08 21:05:09;;;;;;;62.93;30.20;;;;;;;36.18;48.37;101414.53;6215120;23;20681;-70
2022/07/08 21:07:36;;;;;;;46.03;27.97;;;;;;;36.14;48.41;101417.00;6164255;23;20517;-70
2022/07/08 21:10:06;;;;;;;38.90;22.73;;;;;;;36.17;48.26;101413.75;6188649;23;20460;-69
2022/07/08 21:12:32;;;;;;;56.67;25.17;;;;;;;36.08;48.53;101423.50;6188749;23;20367;-69
2022/07/08 21:14:58;;;;;;;42.43;21.57;;;;;;;36.16;48.73;101425.63;6188095;23;20504;-70
2022/07/08 21:17:26;;;;;;;39.60;20.10;;;;;;;36.23;48.13;101425.31;6215246;23;20355;-69
2022/07/08 21:19:52;;;;;;;35.80;21.13;;;;;;;36.10;48.48;101431.34;6186897;23;20375;-70
2022/07/08 21:22:18;;;;;;;34.63;18.63;;;;;;;36.07;48.51;101435.41;6188624;23;20437;-70
2022/07/08 21:24:45;;;;;;;51.43;21.90;;;;;;;36.09;48.25;101449.44;6183340;23;20523;-70
2022/07/08 21:27:13;;;;;;;30.80;20.67;;;;;;;36.08;48.80;101453.22;6183671;23;20428;-70
2022/07/08 21:29:39;;;;;;;36.60;22.57;;;;;;;36.14;48.35;101448.59;6183823;23;20881;-70
2022/07/08 21:32:06;;;;;;;40.73;22.33;;;;;;;35.98;48.59;101451.41;6183264;23;20797;-70
2022/07/08 21:34:32;;;;;;;42.60;24.60;;;;;;;35.98;48.51;101456.00;6185134;23;20356;-70
2022/07/08 21:36:58;;;;;;;45.73;21.50;;;;;;;36.10;48.54;101459.16;6183638;23;20414;-69
2022/07/08 21:39:24;;;;;;;41.50;21.90;;;;;;;36.16;48.32;101458.06;6184981;23;20380;-69
2022/07/08 21:41:51;;;;;;;49.07;25.40;;;;;;;36.10;48.14;101469.16;6183574;23;20848;-69
2022/07/08 21:44:17;;;;;;;57.17;25.00;;;;;;;36.09;48.58;101462.94;6182393;23;20392;-70
2022/07/08 21:46:43;;;;;;;40.73;24.30;;;;;;;36.12;48.51;101462.38;6158529;23;20435;-70
2022/07/08 21:49:09;;;;;;;39.07;23.33;;;;;;;36.16;48.59;101459.94;6183336;23;20415;-69
2022/07/08 21:51:35;;;;;;;38.60;24.33;;;;;;;36.08;48.45;101466.72;6183330;23;20416;-69
2022/07/08 21:54:01;;;;;;;46.73;23.90;;;;;;;36.12;48.37;101469.69;6183356;23;20388;-70
2022/07/08 21:56:27;;;;;;;49.57;19.97;;;;;;;35.91;48.95;101466.22;6184798;23;20368;-70
2022/07/08 21:58:54;;;;;;;44.30;23.80;;;;;;;36.02;48.95;101459.72;6182906;23;20391;-70
2022/07/08 22:01:20;;;;;;;36.10;20.90;;;;;;;36.07;48.70;101454.31;6182742;23;20372;-72
2022/07/08 22:03:46;;;;;;;38.57;20.73;;;;;;;36.12;48.24;101456.19;6183299;23;20808;-72
2022/07/08 22:06:12;;;;;;;42.73;21.57;;;;;;;36.06;48.98;101461.59;6183789;23;20506;-70
2022/07/08 22:08:38;;;;;;;52.83;22.07;;;;;;;35.95;48.96;101465.44;6183460;23;20475;-70
2022/07/08 22:11:05;;;;;;;39.70;20.43;;;;;;;35.88;48.91;101470.31;6183550;23;20408;-70
2022/07/08 22:13:31;;;;;;;47.83;22.63;;;;;;;36.12;48.73;101467.78;6183530;23;20389;-70
2022/07/08 22:15:58;;;;;;;45.87;23.03;;;;;;;36.17;48.23;101466.97;6158619;23;20408;-70
2022/07/08 22:18:26;;;;;;;41.30;21.53;;;;;;;36.21;48.04;101462.59;6182785;23;20388;-72
2022/07/08 22:20:52;;;;;;;39.97;21.50;;;;;;;36.14;48.03;101452.09;6183311;23;20384;-72
2022/07/08 22:23:18;;;;;;;43.43;23.10;;;;;;;36.00;48.92;101451.91;6158677;23;20395;-72
2022/07/08 22:25:45;;;;;;;47.40;20.80;;;;;;;35.86;49.26;101447.38;6208264;23;20446;-72
2022/07/08 22:28:13;;;;;;;34.27;21.17;;;;;;;35.91;49.08;101445.50;6188057;23;20414;-72
2022/07/08 22:30:39;;;;;;;40.60;21.80;;;;;;;36.08;48.58;101444.31;6188248;23;20384;-70
2022/07/08 22:33:05;;;;;;;33.27;21.93;;;;;;;36.23;48.48;101444.22;6163213;23;20848;-70
2022/07/08 22:35:32;;;;;;;33.30;18.33;;;;;;;36.13;48.43;101444.28;6188226;23;20371;-70
2022/07/08 22:37:58;;;;;;;37.97;20.67;;;;;;;36.15;48.20;101447.50;6188439;23;20384;-70
2022/07/08 22:40:24;;;;;;;38.20;18.60;;;;;;;36.08;48.38;101447.00;6215113;23;20697;-72
2022/07/08 22:42:50;;;;;;;43.63;19.97;;;;;;;36.12;48.28;101437.28;6188168;23;20829;-70
2022/07/08 22:45:16;;;;;;;35.70;18.70;;;;;;;35.76;49.60;101437.44;6188057;23;20415;-70
2022/07/08 22:47:47;;;;;;;42.60;20.40;;;;;;;35.67;49.74;101433.72;6188119;23;20375;-70
2022/07/08 22:50:13;;;;;;;44.03;22.97;;;;;;;35.88;49.38;101429.81;6188109;23;20411;-72
2022/07/08 22:52:39;;;;;;;41.43;21.73;;;;;;;36.03;48.67;101435.19;6188207;23;20410;-70
2022/07/08 22:55:06;;;;;;;53.03;21.63;;;;;;;35.99;48.32;101436.00;6188099;23;20403;-72
2022/07/08 22:57:32;;;;;;;43.97;21.57;;;;;;;36.14;48.81;101438.59;6214872;23;20406;-72
2022/07/08 22:59:58;;;;;;;41.67;19.83;;;;;;;36.08;48.32;101434.31;6187848;23;20383;-71
2022/07/08 23:02:24;;;;;;;36.33;18.70;;;;;;;36.03;48.76;101434.34;6188088;23;20474;-70
2022/07/08 23:04:50;;;;;;;45.20;18.83;;;;;;;36.03;48.86;101432.47;6188018;23;20474;-70